createdAt,value
2019-05-30T00:00:17.555Z,1011.7
2019-05-30T00:01:14.655Z,1011.7
2019-05-30T00:02:16.115Z,1011.7
2019-05-30T00:03:17.346Z,1011.7
2019-05-30T00:04:18.721Z,1011.8
2019-05-30T00:05:20.067Z,1011.8
2019-05-30T00:06:21.429Z,1011.7
2019-05-30T00:07:22.794Z,1011.8
2019-05-30T00:08:24.323Z,1011.8
2019-05-30T00:09:25.684Z,1011.8
2019-05-30T00:10:27.041Z,1011.7
2019-05-30T00:11:28.385Z,1011.7
2019-05-30T00:12:29.758Z,1011.7
2019-05-30T00:13:31.106Z,1011.7
2019-05-30T00:14:32.521Z,1011.7
2019-05-30T00:15:33.871Z,1011.7
2019-05-30T00:16:35.251Z,1011.8
2019-05-30T00:17:36.596Z,1011.8
2019-05-30T00:18:37.955Z,1011.7
2019-05-30T00:19:39.296Z,1011.8
2019-05-30T00:20:40.646Z,1011.7
2019-05-30T00:21:42.008Z,1011.8
2019-05-30T00:22:43.361Z,1011.8
2019-05-30T00:23:44.723Z,1011.7
2019-05-30T00:24:46.078Z,1011.7
2019-05-30T00:25:47.434Z,1011.7
2019-05-30T00:26:48.786Z,1011.7
2019-05-30T00:27:50.140Z,1011.7
2019-05-30T00:28:51.491Z,1011.7
2019-05-30T00:29:52.876Z,1011.7
2019-05-30T00:30:54.227Z,1011.7
2019-05-30T00:31:55.599Z,1011.7
2019-05-30T00:32:57.244Z,1011.7
2019-05-30T00:33:59.364Z,1011.7
2019-05-30T00:34:59.673Z,1011.7
2019-05-30T00:36:01.764Z,1011.7
2019-05-30T00:37:02.212Z,1011.7
2019-05-30T00:38:03.889Z,1011.7
2019-05-30T00:39:06.426Z,1011.7
2019-05-30T00:40:06.251Z,1011.7
2019-05-30T00:41:07.557Z,1011.7
2019-05-30T00:42:09.059Z,1011.7
2019-05-30T00:43:10.417Z,1011.7
2019-05-30T00:44:11.777Z,1011.7
2019-05-30T00:45:21.096Z,1011.8
2019-05-30T00:46:14.503Z,1011.8
2019-05-30T00:47:15.855Z,1011.7
2019-05-30T00:48:17.218Z,1011.8
2019-05-30T00:49:18.560Z,1011.8
2019-05-30T00:50:19.912Z,1011.8
2019-05-30T00:51:21.275Z,1011.8
2019-05-30T00:52:22.626Z,1011.8
2019-05-30T00:53:23.987Z,1011.8
2019-05-30T00:54:25.341Z,1011.8
2019-05-30T00:55:26.687Z,1011.7
2019-05-30T00:56:28.049Z,1011.7
2019-05-30T00:57:29.402Z,1011.7
2019-05-30T00:58:30.758Z,1011.7
2019-05-30T00:59:32.115Z,1011.7
2019-05-30T01:00:42.884Z,1011.7
2019-05-30T01:01:34.785Z,1011.7
2019-05-30T01:02:36.145Z,1011.7
2019-05-30T01:03:37.490Z,1011.7
2019-05-30T01:04:38.852Z,1011.7
2019-05-30T01:05:40.220Z,1011.7
2019-05-30T01:06:41.627Z,1011.7
2019-05-30T01:07:42.910Z,1011.6
2019-05-30T01:08:44.268Z,1011.6
2019-05-30T01:09:45.768Z,1011.6
2019-05-30T01:10:47.120Z,1011.6
2019-05-30T01:11:48.530Z,1011.6
2019-05-30T01:12:49.830Z,1011.5
2019-05-30T01:13:51.185Z,1011.6
2019-05-30T01:14:52.531Z,1011.6
2019-05-30T01:15:53.886Z,1011.6
2019-05-30T01:16:55.253Z,1011.6
2019-05-30T01:17:56.983Z,1011.6
2019-05-30T01:18:59.046Z,1011.6
2019-05-30T01:19:59.396Z,1011.6
2019-05-30T01:21:01.287Z,1011.6
2019-05-30T01:22:03.357Z,1011.6
2019-05-30T01:23:03.711Z,1011.6
2019-05-30T01:24:05.628Z,1011.5
2019-05-30T01:25:07.772Z,1011.6
2019-05-30T01:26:07.987Z,1011.6
2019-05-30T01:27:09.362Z,1011.6
2019-05-30T01:28:10.773Z,1011.6
2019-05-30T01:29:12.124Z,1011.6
2019-05-30T01:30:13.487Z,1011.6
2019-05-30T01:31:14.840Z,1011.6
2019-05-30T01:32:16.200Z,1011.6
2019-05-30T01:33:17.572Z,1011.5
2019-05-30T01:34:19.077Z,1011.6
2019-05-30T01:35:20.441Z,1011.5
2019-05-30T01:36:21.791Z,1011.5
2019-05-30T01:37:23.142Z,1011.5
2019-05-30T01:38:24.503Z,1011.5
2019-05-30T01:39:25.852Z,1011.5
2019-05-30T01:40:27.215Z,1011.5
2019-05-30T01:41:28.575Z,1011.5
2019-05-30T01:42:29.916Z,1011.4
2019-05-30T01:43:31.282Z,1011.5
2019-05-30T01:44:32.637Z,1011.5
2019-05-30T01:45:33.990Z,1011.5
2019-05-30T01:46:35.348Z,1011.4
2019-05-30T01:47:36.697Z,1011.5
2019-05-30T01:48:38.047Z,1011.4
2019-05-30T01:49:39.402Z,1011.4
2019-05-30T01:50:40.751Z,1011.4
2019-05-30T01:51:42.116Z,1011.4
2019-05-30T01:52:43.471Z,1011.4
2019-05-30T01:53:44.827Z,1011.4
2019-05-30T01:54:46.182Z,1011.4
2019-05-30T01:55:48.887Z,1011.4
2019-05-30T01:56:48.857Z,1011.4
2019-05-30T01:57:50.203Z,1011.5
2019-05-30T01:58:51.551Z,1011.5
2019-05-30T01:59:52.937Z,1011.5
2019-05-30T02:00:54.307Z,1011.5
2019-05-30T02:01:55.797Z,1011.5
2019-05-30T02:02:57.163Z,1011.5
2019-05-30T02:03:59.109Z,1011.4
2019-05-30T02:05:01.084Z,1011.4
2019-05-30T02:06:01.153Z,1011.4
2019-05-30T02:07:03.190Z,1011.4
2019-05-30T02:08:05.088Z,1011.4
2019-05-30T02:09:05.257Z,1011.4
2019-05-30T02:10:07.415Z,1011.4
2019-05-30T02:11:07.818Z,1011.4
2019-05-30T02:12:09.596Z,1011.4
2019-05-30T02:13:10.496Z,1011.4
2019-05-30T02:14:11.852Z,1011.4
2019-05-30T02:15:13.208Z,1011.4
2019-05-30T02:16:14.572Z,1011.4
2019-05-30T02:17:15.927Z,1011.4
2019-05-30T02:18:56.954Z,1011.5
2019-05-30T02:19:59.563Z,1011.5
2019-05-30T02:21:30.808Z,1011.5
2019-05-30T02:22:32.191Z,1011.5
2019-05-30T02:23:33.535Z,1011.5
2019-05-30T02:24:34.890Z,1011.5
2019-05-30T02:25:36.245Z,1011.5
2019-05-30T02:26:37.606Z,1011.5
2019-05-30T02:27:38.953Z,1011.5
2019-05-30T02:28:40.302Z,1011.5
2019-05-30T02:29:41.652Z,1011.5
2019-05-30T02:30:43.014Z,1011.5
2019-05-30T02:31:44.363Z,1011.5
2019-05-30T02:32:45.718Z,1011.5
2019-05-30T02:33:47.088Z,1011.5
2019-05-30T02:34:48.446Z,1011.5
2019-05-30T02:35:49.789Z,1011.5
2019-05-30T02:36:51.138Z,1011.5
2019-05-30T02:37:52.492Z,1011.5
2019-05-30T02:38:53.851Z,1011.5
2019-05-30T02:39:59.918Z,1011.5
2019-05-30T02:40:56.532Z,1011.5
2019-05-30T02:41:57.896Z,1011.5
2019-05-30T02:43:01.020Z,1011.5
2019-05-30T02:44:01.185Z,1011.5
2019-05-30T02:45:03.413Z,1011.5
2019-05-30T02:46:03.449Z,1011.5
2019-05-30T02:47:05.451Z,1011.5
2019-05-30T02:48:07.270Z,1011.5
2019-05-30T02:49:10.302Z,1011.5
2019-05-30T02:50:10.737Z,1011.5
2019-05-30T02:51:10.723Z,1011.5
2019-05-30T02:52:12.587Z,1011.5
2019-05-30T02:53:13.197Z,1011.5
2019-05-30T02:54:13.803Z,1011.5
2019-05-30T02:55:15.147Z,1011.5
2019-05-30T02:56:16.517Z,1011.5
2019-05-30T02:57:17.884Z,1011.5
2019-05-30T02:58:19.235Z,1011.5
2019-05-30T02:59:20.584Z,1011.5
2019-05-30T03:00:21.954Z,1011.5
2019-05-30T03:01:23.316Z,1011.6
2019-05-30T03:02:24.705Z,1011.5
2019-05-30T03:03:26.039Z,1011.6
2019-05-30T03:04:27.374Z,1011.6
2019-05-30T03:05:28.724Z,1011.6
2019-05-30T03:06:30.078Z,1011.6
2019-05-30T03:07:31.423Z,1011.5
2019-05-30T03:08:32.807Z,1011.5
2019-05-30T03:09:34.158Z,1011.6
2019-05-30T03:10:35.512Z,1011.6
2019-05-30T03:11:36.880Z,1011.6
2019-05-30T03:12:38.237Z,1011.6
2019-05-30T03:13:39.588Z,1011.5
2019-05-30T03:14:40.940Z,1011.6
2019-05-30T03:15:42.307Z,1011.6
2019-05-30T03:16:43.662Z,1011.6
2019-05-30T03:17:45.026Z,1011.7
2019-05-30T03:18:46.393Z,1011.7
2019-05-30T03:19:47.785Z,1011.7
2019-05-30T03:20:49.133Z,1011.7
2019-05-30T03:21:50.499Z,1011.7
2019-05-30T03:22:51.875Z,1011.7
2019-05-30T03:23:53.229Z,1011.7
2019-05-30T03:24:54.599Z,1011.7
2019-05-30T03:25:55.950Z,1011.7
2019-05-30T03:26:57.317Z,1011.7
2019-05-30T03:27:58.674Z,1011.8
2019-05-30T03:29:00.033Z,1011.8
2019-05-30T03:30:04.257Z,1011.8
2019-05-30T03:31:05.942Z,1011.7
2019-05-30T03:32:38.696Z,1011.8
2019-05-30T03:33:16.475Z,1011.8
2019-05-30T03:34:16.147Z,1011.8
2019-05-30T03:35:15.185Z,1011.8
2019-05-30T03:36:17.970Z,1011.8
2019-05-30T03:37:18.865Z,1011.8
2019-05-30T03:38:13.517Z,1011.8
2019-05-30T03:39:15.260Z,1011.8
2019-05-30T03:40:14.677Z,1011.9
2019-05-30T03:41:16.058Z,1011.9
2019-05-30T03:42:17.441Z,1011.9
2019-05-30T03:43:18.795Z,1011.9
2019-05-30T03:44:20.168Z,1011.9
2019-05-30T03:45:21.534Z,1011.9
2019-05-30T03:46:22.903Z,1011.9
2019-05-30T03:47:24.261Z,1012.0
2019-05-30T03:48:25.628Z,1011.9
2019-05-30T03:49:26.974Z,1012.0
2019-05-30T03:50:28.336Z,1012.0
2019-05-30T03:51:29.697Z,1012.0
2019-05-30T03:52:31.054Z,1012.0
2019-05-30T03:53:32.414Z,1012.0
2019-05-30T03:54:33.781Z,1012.0
2019-05-30T03:55:35.140Z,1012.0
2019-05-30T03:56:36.509Z,1012.0
2019-05-30T03:57:37.865Z,1012.0
2019-05-30T03:58:39.229Z,1012.0
2019-05-30T03:59:40.582Z,1012.1
2019-05-30T04:00:41.933Z,1012.1
2019-05-30T04:01:43.296Z,1012.0
2019-05-30T04:02:56.154Z,1012.1
2019-05-30T04:03:45.970Z,1012.0
2019-05-30T04:04:47.339Z,1012.0
2019-05-30T04:05:48.700Z,1012.0
2019-05-30T04:06:50.058Z,1012.0
2019-05-30T04:07:51.419Z,1012.1
2019-05-30T04:08:52.780Z,1012.0
2019-05-30T04:09:54.143Z,1012.1
2019-05-30T04:10:55.506Z,1012.1
2019-05-30T04:11:56.854Z,1012.1
2019-05-30T04:12:58.218Z,1012.1
2019-05-30T04:13:59.573Z,1012.1
2019-05-30T04:15:00.943Z,1012.1
2019-05-30T04:16:02.324Z,1012.2
2019-05-30T04:17:03.676Z,1012.2
2019-05-30T04:18:06.792Z,1012.2
2019-05-30T04:19:07.853Z,1012.3
2019-05-30T04:20:09.366Z,1012.2
2019-05-30T04:21:10.802Z,1012.2
2019-05-30T04:22:11.439Z,1012.2
2019-05-30T04:23:12.512Z,1012.3
2019-05-30T04:24:14.569Z,1012.2
2019-05-30T04:25:14.438Z,1012.3
2019-05-30T04:26:15.890Z,1012.3
2019-05-30T04:27:18.467Z,1012.3
2019-05-30T04:28:18.746Z,1012.3
2019-05-30T04:29:19.630Z,1012.3
2019-05-30T04:30:20.985Z,1012.3
2019-05-30T04:31:22.350Z,1012.4
2019-05-30T04:32:23.700Z,1012.4
2019-05-30T04:33:32.347Z,1012.4
2019-05-30T04:34:26.379Z,1012.5
2019-05-30T04:35:27.749Z,1012.4
2019-05-30T04:36:29.115Z,1012.4
2019-05-30T04:37:30.475Z,1012.5
2019-05-30T04:38:31.823Z,1012.5
2019-05-30T04:39:33.191Z,1012.5
2019-05-30T04:40:34.557Z,1012.5
2019-05-30T04:41:35.909Z,1012.5
2019-05-30T04:42:37.270Z,1012.5
2019-05-30T04:43:38.634Z,1012.5
2019-05-30T04:44:39.990Z,1012.5
2019-05-30T04:45:41.349Z,1012.5
2019-05-30T04:46:42.710Z,1012.5
2019-05-30T04:47:44.064Z,1012.5
2019-05-30T04:48:45.444Z,1012.5
2019-05-30T04:49:46.842Z,1012.5
2019-05-30T04:50:48.213Z,1012.5
2019-05-30T04:51:49.559Z,1012.5
2019-05-30T04:52:50.930Z,1012.5
2019-05-30T04:53:52.291Z,1012.5
2019-05-30T04:54:53.658Z,1012.5
2019-05-30T04:55:55.018Z,1012.6
2019-05-30T04:56:56.384Z,1012.5
2019-05-30T04:57:57.745Z,1012.5
2019-05-30T04:58:59.110Z,1012.5
2019-05-30T05:00:00.459Z,1012.5
2019-05-30T05:01:01.828Z,1012.5
2019-05-30T05:02:03.353Z,1012.5
2019-05-30T05:03:04.735Z,1012.6
2019-05-30T05:04:06.104Z,1012.5
2019-05-30T05:05:07.465Z,1012.5
2019-05-30T05:06:08.846Z,1012.5
2019-05-30T05:07:11.441Z,1012.5
2019-05-30T05:08:11.721Z,1012.5
2019-05-30T05:09:13.954Z,1012.5
2019-05-30T05:10:14.231Z,1012.6
2019-05-30T05:11:18.687Z,1012.5
2019-05-30T05:12:18.149Z,1012.6
2019-05-30T05:13:18.429Z,1012.6
2019-05-30T05:14:20.430Z,1012.6
2019-05-30T05:15:20.986Z,1012.6
2019-05-30T05:16:34.018Z,1012.6
2019-05-30T05:17:23.672Z,1012.7
2019-05-30T05:18:25.056Z,1012.6
2019-05-30T05:19:26.707Z,1012.7
2019-05-30T05:20:27.756Z,1012.6
2019-05-30T05:21:29.116Z,1012.7
2019-05-30T05:22:30.470Z,1012.6
2019-05-30T05:23:31.830Z,1012.7
2019-05-30T05:24:33.187Z,1012.7
2019-05-30T05:25:34.565Z,1012.7
2019-05-30T05:26:35.927Z,1012.7
2019-05-30T05:27:37.283Z,1012.7
2019-05-30T05:28:38.639Z,1012.7
2019-05-30T05:29:40.001Z,1012.7
2019-05-30T05:30:41.357Z,1012.7
2019-05-30T05:31:42.732Z,1012.8
2019-05-30T05:32:44.106Z,1012.8
2019-05-30T05:33:56.256Z,1012.8
2019-05-30T05:34:46.805Z,1012.8
2019-05-30T05:35:48.192Z,1012.9
2019-05-30T05:36:49.544Z,1012.8
2019-05-30T05:37:50.920Z,1013.0
2019-05-30T05:38:52.270Z,1013.3
2019-05-30T05:39:53.670Z,1013.4
2019-05-30T05:40:55.030Z,1013.3
2019-05-30T05:41:56.392Z,1013.3
2019-05-30T05:42:57.706Z,1013.3
2019-05-30T05:43:59.072Z,1013.4
2019-05-30T05:45:00.430Z,1013.3
2019-05-30T05:46:01.790Z,1013.4
2019-05-30T05:47:03.159Z,1013.4
2019-05-30T05:48:04.529Z,1013.5
2019-05-30T05:49:05.886Z,1013.4
2019-05-30T05:50:07.256Z,1013.3
2019-05-30T05:51:08.627Z,1013.6
2019-05-30T05:52:12.047Z,1013.6
2019-05-30T05:53:11.310Z,1013.6
2019-05-30T05:54:12.679Z,1013.6
2019-05-30T05:55:14.046Z,1013.7
2019-05-30T05:56:18.812Z,1013.8
2019-05-30T05:57:19.257Z,1013.8
2019-05-30T05:58:20.881Z,1013.8
2019-05-30T05:59:23.059Z,1013.8
2019-05-30T06:00:23.407Z,1013.8
2019-05-30T06:01:25.402Z,1013.7
2019-05-30T06:02:27.185Z,1013.7
2019-05-30T06:03:28.276Z,1013.8
2019-05-30T06:04:28.627Z,1013.8
2019-05-30T06:05:29.987Z,1014.0
2019-05-30T06:06:31.749Z,1014.0
2019-05-30T06:07:32.689Z,1013.8
2019-05-30T06:08:34.057Z,1013.9
2019-05-30T06:09:35.419Z,1014.0
2019-05-30T06:10:36.781Z,1014.0
2019-05-30T06:11:38.140Z,1014.0
2019-05-30T06:12:39.522Z,1014.1
2019-05-30T06:13:40.894Z,1014.2
2019-05-30T06:14:42.275Z,1014.3
2019-05-30T06:15:43.640Z,1014.3
2019-05-30T06:16:45.009Z,1014.4
2019-05-30T06:17:46.374Z,1014.4
2019-05-30T06:18:47.740Z,1014.4
2019-05-30T06:19:49.179Z,1014.4
2019-05-30T06:20:50.530Z,1014.4
2019-05-30T06:21:54.353Z,1014.3
2019-05-30T06:22:53.250Z,1014.6
2019-05-30T06:23:54.627Z,1014.5
2019-05-30T06:24:55.995Z,1014.5
2019-05-30T06:25:57.360Z,1014.4
2019-05-30T06:26:58.727Z,1014.5
2019-05-30T06:28:00.117Z,1014.4
2019-05-30T06:29:01.478Z,1014.5
2019-05-30T06:30:02.844Z,1014.5
2019-05-30T06:31:04.206Z,1014.5
2019-05-30T06:32:05.577Z,1014.6
2019-05-30T06:33:07.571Z,1014.7
2019-05-30T06:34:08.969Z,1014.7
2019-05-30T06:35:11.316Z,1014.8
2019-05-30T06:36:12.685Z,1014.8
2019-05-30T06:37:14.079Z,1014.9
2019-05-30T06:38:15.451Z,1014.9
2019-05-30T06:39:16.831Z,1015.0
2019-05-30T06:40:19.357Z,1015.1
2019-05-30T06:41:20.096Z,1015.1
2019-05-30T06:42:21.687Z,1015.2
2019-05-30T06:43:24.387Z,1015.2
2019-05-30T06:44:24.136Z,1015.2
2019-05-30T06:45:26.536Z,1015.3
2019-05-30T06:46:28.386Z,1015.3
2019-05-30T06:47:29.057Z,1015.3
2019-05-30T06:48:31.061Z,1015.3
2019-05-30T06:49:32.283Z,1015.2
2019-05-30T06:50:33.669Z,1015.3
2019-05-30T06:51:35.051Z,1015.4
2019-05-30T06:52:36.420Z,1015.4
2019-05-30T06:53:37.793Z,1015.4
2019-05-30T06:54:39.176Z,1015.5
2019-05-30T06:55:41.048Z,1015.5
2019-05-30T06:56:44.661Z,1015.5
2019-05-30T06:57:44.278Z,1015.5
2019-05-30T06:58:48.873Z,1015.4
2019-05-30T06:59:46.982Z,1015.5
2019-05-30T07:00:48.375Z,1015.5
2019-05-30T07:01:52.050Z,1015.5
2019-05-30T07:02:51.913Z,1015.5
2019-05-30T07:03:53.075Z,1015.5
2019-05-30T07:04:54.722Z,1015.6
2019-05-30T07:05:56.105Z,1015.6
2019-05-30T07:06:57.139Z,1015.6
2019-05-30T07:07:58.288Z,1015.6
2019-05-30T07:08:59.672Z,1015.7
2019-05-30T07:10:01.060Z,1015.6
2019-05-30T07:11:03.196Z,1015.7
2019-05-30T07:12:04.566Z,1015.7
2019-05-30T07:13:05.937Z,1015.8
2019-05-30T07:14:07.342Z,1015.7
2019-05-30T07:15:08.748Z,1015.8
2019-05-30T07:16:10.129Z,1015.8
2019-05-30T07:17:11.523Z,1015.7
2019-05-30T07:18:12.921Z,1015.8
2019-05-30T07:19:14.863Z,1015.8
2019-05-30T07:20:16.844Z,1015.7
2019-05-30T07:21:18.234Z,1015.9
2019-05-30T07:22:20.923Z,1016.0
2019-05-30T07:23:21.651Z,1016.1
2019-05-30T07:24:23.702Z,1016.1
2019-05-30T07:25:25.599Z,1015.9
2019-05-30T07:26:25.706Z,1015.9
2019-05-30T07:27:27.869Z,1016.0
2019-05-30T07:28:29.893Z,1016.0
2019-05-30T07:29:30.438Z,1016.1
2019-05-30T07:30:32.792Z,1016.1
2019-05-30T07:31:34.369Z,1016.0
2019-05-30T07:32:36.058Z,1015.9
2019-05-30T07:33:37.418Z,1016.0
2019-05-30T07:34:38.801Z,1015.7
2019-05-30T07:35:40.178Z,1015.6
2019-05-30T07:36:42.115Z,1015.7
2019-05-30T07:37:46.376Z,1015.8
2019-05-30T07:38:44.859Z,1015.8
2019-05-30T07:39:46.274Z,1015.9
2019-05-30T07:40:47.599Z,1015.8
2019-05-30T07:42:02.992Z,1015.9
2019-05-30T07:42:50.382Z,1015.7
2019-05-30T07:43:51.748Z,1015.9
2019-05-30T07:44:53.733Z,1015.9
2019-05-30T07:45:58.345Z,1016.0
2019-05-30T07:46:56.443Z,1016.0
2019-05-30T07:47:59.435Z,1016.0
2019-05-30T07:49:00.041Z,1016.0
2019-05-30T07:50:01.423Z,1016.0
2019-05-30T07:51:02.798Z,1016.0
2019-05-30T07:52:04.188Z,1016.0
2019-05-30T07:53:05.543Z,1015.8
2019-05-30T07:54:06.943Z,1015.9
2019-05-30T07:55:08.324Z,1016.0
2019-05-30T07:56:09.693Z,1015.9
2019-05-30T07:57:11.080Z,1015.9
2019-05-30T07:58:12.461Z,1015.9
2019-05-30T07:59:13.852Z,1015.9
2019-05-30T08:00:15.229Z,1016.0
2019-05-30T08:01:16.603Z,1016.0
2019-05-30T08:02:17.983Z,1016.0
2019-05-30T08:03:19.353Z,1016.0
2019-05-30T08:04:20.733Z,1016.0
2019-05-30T08:05:24.662Z,1015.8
2019-05-30T08:06:23.504Z,1016.1
2019-05-30T08:07:24.877Z,1016.0
2019-05-30T08:08:28.026Z,1016.1
2019-05-30T08:09:29.242Z,1016.0
2019-05-30T08:10:29.926Z,1015.9
2019-05-30T08:11:30.900Z,1015.5
2019-05-30T08:12:32.250Z,1015.7
2019-05-30T08:13:33.632Z,1015.6
2019-05-30T08:14:35.274Z,1015.5
2019-05-30T08:15:38.703Z,1015.6
2019-05-30T08:16:37.731Z,1015.7
2019-05-30T08:17:39.115Z,1015.8
2019-05-30T08:18:40.495Z,1015.7
2019-05-30T08:20:21.564Z,1015.8
2019-05-30T08:21:23.070Z,1015.7
2019-05-30T08:22:24.485Z,1015.3
2019-05-30T08:23:25.880Z,1015.6
2019-05-30T08:24:28.077Z,1015.4
2019-05-30T08:25:29.999Z,1015.6
2019-05-30T08:26:30.118Z,1015.6
2019-05-30T08:27:32.383Z,1015.6
2019-05-30T08:28:34.412Z,1015.5
2019-05-30T08:29:36.460Z,1014.9
2019-05-30T08:30:37.143Z,1015.5
2019-05-30T08:31:40.205Z,1015.5
2019-05-30T08:32:41.584Z,1015.1
2019-05-30T08:33:42.968Z,1015.3
2019-05-30T08:34:44.340Z,1015.3
2019-05-30T08:35:49.812Z,1015.4
2019-05-30T08:36:47.067Z,1015.4
2019-05-30T08:37:48.439Z,1015.3
2019-05-30T08:38:49.829Z,1015.3
2019-05-30T08:39:51.208Z,1015.4
2019-05-30T08:40:52.599Z,1015.5
2019-05-30T08:41:53.990Z,1015.4
2019-05-30T08:42:55.383Z,1015.4
2019-05-30T08:43:56.744Z,1015.4
2019-05-30T08:44:58.218Z,1015.3
2019-05-30T08:45:59.570Z,1015.2
2019-05-30T08:47:00.955Z,1015.2
2019-05-30T08:48:02.329Z,1015.3
2019-05-30T08:49:03.712Z,1015.3
2019-05-30T08:50:05.088Z,1015.4
2019-05-30T08:51:06.470Z,1015.4
2019-05-30T08:52:07.864Z,1015.3
2019-05-30T08:53:09.229Z,1015.3
2019-05-30T08:54:13.509Z,1015.3
2019-05-30T08:55:11.960Z,1015.3
2019-05-30T08:56:13.336Z,1015.3
2019-05-30T08:57:14.733Z,1015.3
2019-05-30T08:58:16.104Z,1015.3
2019-05-30T08:59:17.492Z,1015.3
2019-05-30T09:00:18.880Z,1015.3
2019-05-30T09:01:20.264Z,1015.4
2019-05-30T09:02:21.640Z,1015.4
2019-05-30T09:03:23.100Z,1015.3
2019-05-30T09:04:24.485Z,1015.4
2019-05-30T09:05:25.874Z,1015.3
2019-05-30T09:06:27.251Z,1015.4
2019-05-30T09:07:31.378Z,1015.4
2019-05-30T09:08:30.030Z,1015.2
2019-05-30T09:09:31.407Z,1015.1
2019-05-30T09:10:32.798Z,1014.9
2019-05-30T09:11:34.219Z,1014.9
2019-05-30T09:12:36.419Z,1014.8
2019-05-30T09:13:37.837Z,1014.8
2019-05-30T09:14:39.296Z,1014.6
2019-05-30T09:15:40.953Z,1014.5
2019-05-30T09:16:41.008Z,1014.4
2019-05-30T09:17:42.618Z,1014.4
2019-05-30T09:18:43.751Z,1014.4
2019-05-30T09:19:45.416Z,1014.3
2019-05-30T09:20:47.365Z,1014.4
2019-05-30T09:21:47.851Z,1014.3
2019-05-30T09:22:49.239Z,1014.4
2019-05-30T09:23:50.703Z,1014.1
2019-05-30T09:24:51.978Z,1014.2
2019-05-30T09:25:53.354Z,1014.2
2019-05-30T09:26:54.739Z,1014.1
2019-05-30T09:27:56.119Z,1014.2
2019-05-30T09:28:57.505Z,1014.2
2019-05-30T09:29:58.886Z,1014.0
2019-05-30T09:31:00.279Z,1014.1
2019-05-30T09:32:01.668Z,1014.1
2019-05-30T09:33:03.044Z,1014.0
2019-05-30T09:34:04.427Z,1014.0
2019-05-30T09:35:05.814Z,1013.9
2019-05-30T09:36:13.194Z,1014.0
2019-05-30T09:37:08.531Z,1014.0
2019-05-30T09:38:09.932Z,1013.9
2019-05-30T09:39:11.373Z,1013.8
2019-05-30T09:40:12.767Z,1013.9
2019-05-30T09:41:14.141Z,1013.9
2019-05-30T09:42:15.535Z,1013.8
2019-05-30T09:43:16.925Z,1014.0
2019-05-30T09:44:18.311Z,1013.9
2019-05-30T09:45:19.689Z,1013.9
2019-05-30T09:46:21.093Z,1013.9
2019-05-30T09:47:22.465Z,1013.9
2019-05-30T09:48:23.854Z,1013.7
2019-05-30T09:49:25.234Z,1013.6
2019-05-30T09:50:26.624Z,1013.6
2019-05-30T09:51:28.005Z,1013.7
2019-05-30T09:52:29.384Z,1013.6
2019-05-30T09:53:30.781Z,1013.7
2019-05-30T09:54:32.160Z,1013.8
2019-05-30T09:55:33.553Z,1013.7
2019-05-30T09:56:34.945Z,1013.7
2019-05-30T09:57:36.326Z,1013.6
2019-05-30T09:58:37.710Z,1013.6
2019-05-30T09:59:39.094Z,1013.7
2019-05-30T10:00:42.869Z,1013.7
2019-05-30T10:01:42.714Z,1013.6
2019-05-30T10:02:44.738Z,1013.6
2019-05-30T10:03:45.178Z,1013.6
2019-05-30T10:04:46.828Z,1013.6
2019-05-30T10:05:48.602Z,1013.5
2019-05-30T10:06:48.736Z,1013.5
2019-05-30T10:07:50.800Z,1013.6
2019-05-30T10:08:51.501Z,1012.8
2019-05-30T10:09:53.144Z,1013.6
2019-05-30T10:10:54.212Z,1013.6
2019-05-30T10:11:55.589Z,1013.5
2019-05-30T10:12:56.975Z,1013.6
2019-05-30T10:13:58.351Z,1013.2
2019-05-30T10:14:59.731Z,1012.6
2019-05-30T10:16:01.124Z,1012.7
2019-05-30T10:17:02.502Z,1013.2
2019-05-30T10:18:03.877Z,1013.7
2019-05-30T10:19:05.376Z,1013.7
2019-05-30T10:20:06.765Z,1012.8
2019-05-30T10:21:08.144Z,1013.2
2019-05-30T10:22:09.526Z,1013.8
2019-05-30T10:23:10.909Z,1013.8
2019-05-30T10:24:12.302Z,1013.7
2019-05-30T10:25:13.677Z,1013.7
2019-05-30T10:26:15.056Z,1013.6
2019-05-30T10:27:16.436Z,1013.6
2019-05-30T10:28:17.830Z,1013.5
2019-05-30T10:29:19.217Z,1013.5
2019-05-30T10:30:20.615Z,1013.5
2019-05-30T10:31:22.003Z,1013.4
2019-05-30T10:32:23.397Z,1013.3
2019-05-30T10:33:24.909Z,1013.4
2019-05-30T10:34:26.306Z,1013.2
2019-05-30T10:35:29.877Z,1013.3
2019-05-30T10:36:41.498Z,1013.3
2019-05-30T10:37:30.372Z,1013.4
2019-05-30T10:38:31.761Z,1013.3
2019-05-30T10:39:33.165Z,1013.4
2019-05-30T10:40:34.552Z,1013.4
2019-05-30T10:41:35.945Z,1013.4
2019-05-30T10:42:37.331Z,1013.3
2019-05-30T10:43:38.715Z,1013.2
2019-05-30T10:44:40.098Z,1013.4
2019-05-30T10:45:41.486Z,1013.5
2019-05-30T10:46:42.863Z,1013.5
2019-05-30T10:47:45.826Z,1013.4
2019-05-30T10:48:47.281Z,1013.5
2019-05-30T10:49:48.042Z,1013.4
2019-05-30T10:50:48.578Z,1013.2
2019-05-30T10:51:49.723Z,1013.3
2019-05-30T10:52:51.459Z,1013.3
2019-05-30T10:53:53.638Z,1013.4
2019-05-30T10:54:53.751Z,1013.4
2019-05-30T10:55:56.402Z,1013.2
2019-05-30T10:56:56.495Z,1013.2
2019-05-30T10:57:59.517Z,1013.1
2019-05-30T10:58:59.236Z,1013.4
2019-05-30T11:00:00.626Z,1013.2
2019-05-30T11:01:02.090Z,1013.5
2019-05-30T11:02:03.478Z,1013.4
2019-05-30T11:03:04.860Z,1013.3
2019-05-30T11:04:06.245Z,1013.3
2019-05-30T11:05:07.642Z,1013.2
2019-05-30T11:06:09.025Z,1013.0
2019-05-30T11:07:11.648Z,1012.9
2019-05-30T11:08:11.770Z,1013.0
2019-05-30T11:09:13.160Z,1013.1
2019-05-30T11:10:14.553Z,1013.0
2019-05-30T11:11:15.936Z,1013.4
2019-05-30T11:12:17.321Z,1013.5
2019-05-30T11:13:18.710Z,1013.3
2019-05-30T11:14:20.101Z,1013.3
2019-05-30T11:15:21.518Z,1013.0
2019-05-30T11:16:22.916Z,1012.8
2019-05-30T11:17:24.295Z,1013.1
2019-05-30T11:18:25.692Z,1013.2
2019-05-30T11:19:27.091Z,1013.1
2019-05-30T11:20:28.466Z,1013.2
2019-05-30T11:21:29.855Z,1013.1
2019-05-30T11:22:31.233Z,1013.1
2019-05-30T11:23:32.607Z,1013.3
2019-05-30T11:24:33.988Z,1013.0
2019-05-30T11:25:35.367Z,1013.2
2019-05-30T11:26:36.755Z,1013.5
2019-05-30T11:27:38.200Z,1013.2
2019-05-30T11:28:39.584Z,1013.3
2019-05-30T11:29:41.074Z,1013.1
2019-05-30T11:30:42.317Z,1013.0
2019-05-30T11:31:43.707Z,1012.9
2019-05-30T11:32:45.091Z,1013.1
2019-05-30T11:33:46.476Z,1013.1
2019-05-30T11:34:48.909Z,1013.1
2019-05-30T11:35:49.206Z,1013.2
2019-05-30T11:36:51.018Z,1012.9
2019-05-30T11:37:52.990Z,1013.2
2019-05-30T11:38:53.717Z,1013.0
2019-05-30T11:39:55.323Z,1013.0
2019-05-30T11:40:56.012Z,1013.4
2019-05-30T11:41:57.646Z,1013.5
2019-05-30T11:42:59.824Z,1013.2
2019-05-30T11:44:03.413Z,1013.3
2019-05-30T11:45:01.449Z,1012.6
2019-05-30T11:46:02.832Z,1012.4
2019-05-30T11:47:04.213Z,1012.3
2019-05-30T11:48:05.597Z,1012.4
2019-05-30T11:49:06.990Z,1012.5
2019-05-30T11:50:08.370Z,1012.5
2019-05-30T11:51:09.751Z,1012.5
2019-05-30T11:52:11.136Z,1012.6
2019-05-30T11:53:12.512Z,1012.7
2019-05-30T11:54:13.965Z,1012.7
2019-05-30T11:55:15.358Z,1012.8
2019-05-30T11:56:16.725Z,1012.8
2019-05-30T11:57:18.105Z,1012.9
2019-05-30T11:58:19.953Z,1012.9
2019-05-30T11:59:20.836Z,1013.0
2019-05-30T12:00:22.219Z,1013.0
2019-05-30T12:01:23.596Z,1012.9
2019-05-30T12:02:24.983Z,1013.0
2019-05-30T12:03:29.201Z,1013.0
2019-05-30T12:04:27.696Z,1013.1
2019-05-30T12:05:29.106Z,1013.3
2019-05-30T12:06:30.488Z,1013.4
2019-05-30T12:07:36.362Z,1013.2
2019-05-30T12:08:33.232Z,1013.0
2019-05-30T12:09:34.650Z,1012.9
2019-05-30T12:10:36.033Z,1012.9
2019-05-30T12:11:37.446Z,1012.8
2019-05-30T12:12:38.878Z,1012.8
2019-05-30T12:13:40.266Z,1013.0
2019-05-30T12:14:41.733Z,1012.9
2019-05-30T12:15:43.136Z,1013.0
2019-05-30T12:16:44.512Z,1013.1
2019-05-30T12:17:45.921Z,1013.1
2019-05-30T12:18:47.328Z,1013.1
2019-05-30T12:19:48.754Z,1013.1
2019-05-30T12:20:51.576Z,1013.0
2019-05-30T12:21:51.587Z,1013.0
2019-05-30T12:22:53.731Z,1013.0
2019-05-30T12:23:54.424Z,1013.1
2019-05-30T12:24:55.860Z,1013.0
2019-05-30T12:25:58.047Z,1012.9
2019-05-30T12:26:58.305Z,1013.1
2019-05-30T12:28:00.121Z,1013.1
2019-05-30T12:29:02.222Z,1013.0
2019-05-30T12:30:02.636Z,1013.1
2019-05-30T12:31:06.431Z,1013.1
2019-05-30T12:32:05.043Z,1013.0
2019-05-30T12:33:06.419Z,1013.0
2019-05-30T12:34:07.804Z,1012.9
2019-05-30T12:35:09.190Z,1012.9
2019-05-30T12:36:10.572Z,1012.9
2019-05-30T12:37:11.960Z,1013.0
2019-05-30T12:38:13.335Z,1012.9
2019-05-30T12:39:14.708Z,1012.9
2019-05-30T12:40:16.087Z,1012.9
2019-05-30T12:41:17.458Z,1012.8
2019-05-30T12:42:18.833Z,1013.0
2019-05-30T12:43:20.207Z,1012.9
2019-05-30T12:44:21.588Z,1012.9
2019-05-30T12:45:22.986Z,1012.9
2019-05-30T12:46:24.350Z,1012.9
2019-05-30T12:47:25.734Z,1012.9